Ironville, New York
Current Conditions -  °F | °C
As of 7:15 PM on Tuesday 25 Nov 2014 (Local Time) from K6B0 Reporting Station
Scattered Clouds Scattered Clouds  
Wind Chill: 37°   Ceiling: Unl
Heat Index: 37°   Visibility: 10mi
Dew Point: 30°   Wind: 0mph
Humidity: 78%   Direction: NA
Pressure: 29.99"   Gusts: NA
Location:  43.9506°N, 73.5319°W
Report Text: K6B0 260015Z AUTO 00000KT 10SM SCT060 03/M01 A2999 RMK AO2 T00261009
Loading
Personal Weather Stations






























Interactive Weather Map New forecast layout! Learn more

10-Day Weather Forecast

Advertisements
Track Severe Weather on mobile